Time;durP1;ratioP1;P1;durP2;ratioP2;P2;SDS_P1;SDS_P2;PMS_P1;PMS_P2;Temp;Humidity;BMP_temperature;BMP_pressure;BME280_temperature;BME280_humidity;BME280_pressure;Samples;Min_cycle;Max_cycle;Signal;HPM_P1;HPM_P2
2022/07/16 01:04:49;;;;;;;;;;;;;;;;;;;;;
2022/07/16 01:15:12;;;;;;;;;;;;;;;;;;;;;
2022/07/16 01:18:34;;;;;;;;;;;;;;;;;;;;;
2022/07/16 01:39:51;;;;;;;;;;;;;;;;;;;;;
2022/07/16 03:58:45;;;;;;;;;4.00;4.00;;;;;19.39;42.69;101850.59;5369071;22;20999812;-82
2022/07/16 04:01:34;;;;;;;;;4.75;4.00;;;;;19.42;42.62;101855.84;6279096;22;45749;-83
2022/07/16 04:04:12;;;;;;;;;5.75;5.50;;;;;19.48;42.70;101878.88;6277788;22;45396;-82
2022/07/16 04:06:41;;;;;;;;;6.00;5.00;;;;;19.42;43.22;101871.00;6276974;22;45200;-83
2022/07/16 04:09:15;;;;;;;;;4.00;4.00;;;;;19.34;43.32;101865.81;6278811;22;45341;-83
2022/07/16 04:12:23;;;;;;;;;3.25;3.25;;;;;19.26;43.58;101857.09;6278133;22;45316;-83
2022/07/16 04:14:52;;;;;;;;;4.00;4.00;;;;;19.14;43.69;101852.94;6267112;22;45458;-83
2022/07/16 04:17:31;;;;;;;;;5.75;4.25;;;;;19.17;43.50;101868.88;6279164;22;45240;-83
2022/07/16 04:20:11;;;;;;;;;;;;;;;;;;;;;
2022/07/16 04:22:50;;;;;;;;;;;;;;;;;;;;;
2022/07/16 04:28:51;;;;;;;;;3.25;3.25;;;;;19.13;44.09;101896.53;6272382;22;45299;-83
2022/07/16 04:31:48;;;;;;;;;4.00;4.00;;;;;19.05;44.12;101893.13;6275068;22;45563;-82
2022/07/16 04:34:45;;;;;;;;;5.75;5.00;;;;;19.04;44.12;101883.38;6279171;22;46337;-83
2022/07/16 04:37:21;;;;;;;;;3.75;3.00;;;;;18.95;44.55;101873.75;6276691;22;45456;-83
2022/07/16 04:39:47;;;;;;;;;6.00;5.00;;;;;18.93;44.56;101875.59;6279196;22;45353;-83
2022/07/16 04:42:36;;;;;;;;;3.75;3.75;;;;;18.99;44.73;101887.94;6301856;22;45352;-83
2022/07/16 04:45:24;;;;;;;;;2.00;2.00;;;;;19.12;44.82;101906.34;6278077;22;46108;-83
2022/07/16 04:48:32;;;;;;;;;5.25;4.25;;;;;19.08;45.09;101898.41;6276747;22;45403;-83
2022/07/16 04:54:06;;;;;;;;;5.25;4.00;;;;;19.00;44.58;101897.69;6244521;22;45558;-82
2022/07/16 04:57:02;;;;;;;;;5.75;4.00;;;;;19.14;44.69;101920.53;6276036;22;46896;-83
2022/07/16 04:59:44;;;;;;;;;;;;;;;;;;;;;
2022/07/16 05:05:33;;;;;;;;;;;;;;;;;;;;;
2022/07/16 05:08:34;;;;;;;;;;;;;;;;;;;;;
2022/07/16 05:11:18;;;;;;;;;7.25;6.25;;;;;18.97;45.14;101882.63;6277290;22;72741;-83
2022/07/16 05:13:53;;;;;;;;;;;;;;;;;;;;;
2022/07/16 05:16:33;;;;;;;;;;;;;;;;;;;;;
2022/07/16 05:19:04;;;;;;;;;6.25;6.25;;;;;18.99;45.30;101879.94;6277220;22;74967;-82
2022/07/16 05:21:34;;;;;;;;;5.00;5.00;;;;;19.25;45.24;101928.31;6276016;22;45358;-83
2022/07/16 05:24:11;;;;;;;;;7.50;6.00;;;;;19.03;45.11;101878.94;6278483;22;45401;-82
2022/07/16 05:27:01;;;;;;;;;;;;;;;;;;;;;
2022/07/16 05:30:00;;;;;;;;;;;;;;;;;;;;;
2022/07/16 05:32:28;;;;;;;;;6.75;6.00;;;;;19.24;45.57;101910.53;6277669;22;72521;-82
2022/07/16 05:35:04;;;;;;;;;;;;;;;;;;;;;
2022/07/16 05:37:57;;;;;;;;;6.25;6.25;;;;;19.35;45.58;101929.00;6277360;22;71979;-82
2022/07/16 05:40:34;;;;;;;;;6.00;6.00;;;;;19.12;45.21;101881.44;6291101;22;48083;-83
2022/07/16 05:43:35;;;;;;;;;;;;;;;;;;;;;
2022/07/16 05:49:50;;;;;;;;;6.75;6.00;;;;;19.29;45.58;101911.31;6278338;22;45220;-84
2022/07/16 05:52:32;;;;;;;;;;;;;;;;;;;;;
2022/07/16 05:55:51;;;;;;;;;;;;;;;;;;;;;
2022/07/16 05:59:01;;;;;;;;;;;;;;;;;;;;;
2022/07/16 06:01:43;;;;;;;;;;;;;;;;;;;;;
2022/07/16 06:04:21;;;;;;;;;5.00;5.00;;;;;19.53;45.45;101923.25;6278045;22;75293;-85
2022/07/16 06:07:11;;;;;;;;;5.75;5.75;;;;;19.74;45.22;101950.44;6301675;22;45245;-86
2022/07/16 06:09:59;;;;;;;;;8.25;7.25;;;;;19.71;45.64;101945.19;6293094;22;45413;-85
2022/07/16 06:12:40;;;;;;;;;6.50;5.75;;;;;19.69;45.26;101938.97;6278287;22;45172;-85
2022/07/16 06:15:18;;;;;;;;;6.25;6.25;;;;;19.69;45.13;101939.84;6302328;22;47033;-85
2022/07/16 06:18:03;;;;;;;;;5.25;5.00;;;;;19.90;45.37;101967.91;6278148;22;45369;-84
2022/07/16 06:20:29;;;;;;;;;4.75;3.50;;;;;19.90;45.19;101969.69;6277792;22;45243;-80
2022/07/16 06:22:56;;;;;;;;;5.00;4.25;;;;;19.91;45.52;101953.59;6278017;22;45160;-83
2022/07/16 06:25:22;;;;;;;;;5.25;5.25;;;;;19.95;45.31;101959.78;6276145;22;47532;-81
2022/07/16 06:27:53;;;;;;;;;4.75;4.75;;;;;19.95;45.47;101947.28;6302085;22;45184;-83
2022/07/16 06:30:21;;;;;;;;;6.75;5.25;;;;;20.08;45.17;101963.03;6278020;22;45215;-81
2022/07/16 06:32:46;;;;;;;;;5.50;5.00;;;;;20.08;44.56;101955.03;6302280;22;45433;-81
2022/07/16 06:35:14;;;;;;;;;7.00;6.00;;;;;20.21;44.33;101978.75;6278876;22;46297;-81
2022/07/16 06:37:42;;;;;;;;;7.25;7.25;;;;;20.20;44.67;101976.09;6279128;22;45361;-80
2022/07/16 06:40:10;;;;;;;;;4.00;4.00;;;;;20.22;44.77;101975.16;6279119;22;45284;-80
2022/07/16 06:42:48;;;;;;;;;6.75;5.25;;;;;20.19;44.55;101966.34;6279622;22;45172;-81
2022/07/16 06:45:14;;;;;;;;;8.00;6.00;;;;;20.30;44.68;101982.13;6279081;22;45476;-81
2022/07/16 06:47:44;;;;;;;;;7.75;6.25;;;;;20.37;44.30;101986.38;6276683;22;45835;-86
2022/07/16 06:50:12;;;;;;;;;6.50;5.50;;;;;20.39;44.37;101987.22;6277100;22;45218;-81
2022/07/16 06:52:43;;;;;;;;;4.00;4.00;;;;;20.51;44.50;102004.78;6279478;22;45116;-81
2022/07/16 08:13:36;;;;;;;;;;;;;;;;;;;;;
2022/07/16 08:16:37;;;;;;;;;;;;;;;;;;;;;
2022/07/16 08:19:41;;;;;;;;;;;;;;;;;;;;;
2022/07/16 08:22:51;;;;;;;;;;;;;;;;;;;;;
2022/07/16 08:31:18;;;;;;;;;;;;;;;;;;;;;
2022/07/16 08:34:16;;;;;;;;;;;;;;;;;;;;;
2022/07/16 08:40:12;;;;;;;;;;;;;;;;;;;;;
2022/07/16 08:43:15;;;;;;;;;2.00;2.00;;;;;24.56;35.44;102004.81;6308296;22;73862;-82
2022/07/16 08:46:17;;;;;;;;;;;;;;;;;;;;;
2022/07/16 08:49:23;;;;;;;;;;;;;;;;;;;;;
2022/07/16 08:52:34;;;;;;;;;4.00;4.00;;;;;24.90;35.06;102009.66;6308119;22;71443;-83
2022/07/16 08:55:55;;;;;;;;;;;;;;;;;;;;;
2022/07/16 08:58:53;;;;;;;;;;;;;;;;;;;;;
2022/07/16 09:01:29;;;;;;;;;3.50;3.50;;;;;25.13;34.15;102023.91;6308508;22;67859;-82
2022/07/16 09:04:08;;;;;;;;;;;;;;;;;;;;;
2022/07/16 09:06:59;;;;;;;;;;;;;;;;;;;;;
2022/07/16 09:09:37;;;;;;;;;;;;;;;;;;;;;
2022/07/16 09:12:48;;;;;;;;;;;;;;;;;;;;;
2022/07/16 09:15:48;;;;;;;;;3.00;3.00;;;;;25.37;33.62;102005.78;6307844;22;72734;-82
2022/07/16 09:18:30;;;;;;;;;;;;;;;;;;;;;
2022/07/16 09:21:27;;;;;;;;;3.67;3.00;;;;;25.48;32.66;102017.84;6308532;22;72957;-82
2022/07/16 09:24:15;;;;;;;;;;;;;;;;;;;;;
2022/07/16 09:27:44;;;;;;;;;;;;;;;;;;;;;
2022/07/16 09:37:59;;;;;;;;;;;;;;;;;;;;;
2022/07/16 09:41:01;;;;;;;;;;;;;;;;;;;;;
2022/07/16 09:44:02;;;;;;;;;;;;;;;;;;;;;
2022/07/16 09:47:00;;;;;;;;;;;;;;;;;;;;;
2022/07/16 09:49:54;;;;;;;;;3.25;3.25;;;;;25.83;32.04;102009.94;6307111;22;69698;-82
2022/07/16 09:53:10;;;;;;;;;2.67;2.67;;;;;25.92;31.00;102011.34;6219898;22;46206;-84
2022/07/16 09:56:00;;;;;;;;;3.33;3.33;;;;;26.00;31.72;102024.47;6293790;22;46357;-80
2022/07/16 09:58:37;;;;;;;;;4.00;4.00;;;;;26.08;31.46;102023.16;6309501;22;45277;-83
2022/07/16 10:01:16;;;;;;;;;4.00;4.00;;;;;26.12;31.47;102019.38;6309218;22;45221;-82
2022/07/16 10:04:24;;;;;;;;;2.67;2.67;;;;;26.15;31.41;102015.66;6280473;22;45501;-84
2022/07/16 10:06:49;;;;;;;;;3.00;3.00;;;;;26.21;31.30;102018.03;6280362;22;47238;-81
2022/07/16 10:10:24;;;;;;;;;3.25;3.25;;;;;26.34;31.03;102024.56;6309777;22;45354;-90
2022/07/16 10:13:43;;;;;;;;;6.00;4.75;;;;;26.48;30.99;102020.31;6196692;22;45413;-86
2022/07/16 10:16:46;;;;;;;;;6.50;4.25;;;;;26.57;30.91;102022.56;6184536;22;45264;-82
2022/07/16 11:23:26;;;;;;;;;3.75;3.75;;;;;29.84;25.98;101990.28;5808092;23;45682;-79
2022/07/16 12:02:30;;;;;;;;;;;;;;;;;;;;;
2022/07/16 12:13:22;;;;;;;;;3.75;3.75;;;;;31.32;23.75;101979.25;6077385;23;45333;-85
2022/07/16 12:26:28;;;;;;;;;;;;;;;;;;;;;
2022/07/16 12:29:04;;;;;;;;;3.00;3.00;;;;;32.04;23.19;101967.72;6303920;22;72068;-79
2022/07/16 12:31:41;;;;;;;;;5.50;5.50;;;;;32.11;23.26;101969.00;6278614;22;47650;-80
2022/07/16 12:34:23;;;;;;;;;6.75;6.00;;;;;32.20;23.04;101960.09;6281024;22;45714;-80
2022/07/16 12:37:17;;;;;;;;;2.75;2.75;;;;;32.33;22.76;101961.91;6280985;22;45433;-80
2022/07/16 12:39:48;;;;;;;;;9.00;7.75;;;;;32.30;22.43;101961.16;6307756;22;45488;-80
2022/07/16 12:42:16;;;;;;;;;3.75;3.75;;;;;32.33;22.84;101957.31;6280482;22;47029;-80
2022/07/16 12:45:11;;;;;;;;;;;;;;;;;;;;;
2022/07/16 12:47:45;;;;;;;;;5.00;4.00;;;;;32.50;22.57;101961.50;6307626;22;67468;-80
2022/07/16 12:50:18;;;;;;;;;4.75;4.00;;;;;32.45;21.88;101960.94;6309151;22;45237;-80
2022/07/16 12:52:55;;;;;;;;;3.50;3.50;;;;;32.40;21.86;101954.97;6280031;22;47823;-80
2022/07/16 13:01:09;;;;;;;;;3.00;3.00;;;;;32.61;22.06;101953.38;6308711;22;45678;-81
2022/07/16 13:03:40;;;;;;;;;5.00;3.50;;;;;32.59;21.35;101954.47;6280276;22;47196;-81
2022/07/16 13:06:21;;;;;;;;;3.50;3.50;;;;;32.57;21.48;101945.53;6308802;22;45277;-81
2022/07/16 13:08:59;;;;;;;;;2.75;2.75;;;;;32.55;21.64;101947.50;6308921;22;45324;-81
2022/07/16 13:11:28;;;;;;;;;4.00;4.00;;;;;32.69;21.84;101950.03;6308898;22;45393;-81
2022/07/16 13:14:04;;;;;;;;;5.00;5.00;;;;;32.78;21.42;101948.44;6308942;22;46533;-81
2022/07/16 13:16:33;;;;;;;;;5.00;5.00;;;;;32.86;21.72;101944.13;6308601;22;45272;-80
2022/07/16 13:19:05;;;;;;;;;7.25;6.00;;;;;33.04;21.33;101946.38;6307111;22;45305;-80
2022/07/16 13:21:34;;;;;;;;;5.00;4.00;;;;;33.19;21.01;101947.03;6306859;22;45207;-81
2022/07/16 13:24:10;;;;;;;;;6.50;6.00;;;;;33.23;20.78;101938.47;6308546;22;46269;-81
2022/07/16 13:26:38;;;;;;;;;7.75;7.75;;;;;33.24;21.62;101937.47;6309302;22;45401;-81
2022/07/16 13:29:11;;;;;;;;;6.25;6.25;;;;;33.39;21.37;101929.91;6307155;22;45421;-81
2022/07/16 13:31:39;;;;;;;;;6.25;6.25;;;;;33.52;20.63;101929.75;6306867;22;45235;-81
2022/07/16 13:34:14;;;;;;;;;9.25;9.25;;;;;33.66;20.46;101929.53;6307162;22;48158;-81
2022/07/16 13:36:45;;;;;;;;;8.00;8.00;;;;;33.67;20.39;101931.25;6309137;22;45180;-81
2022/07/16 13:39:15;;;;;;;;;3.00;3.00;;;;;33.69;20.60;101926.53;6281354;22;45205;-81
2022/07/16 13:42:04;;;;;;;;;5.00;5.00;;;;;33.64;20.24;101928.78;6280902;22;45273;-81
2022/07/16 13:44:29;;;;;;;;;6.00;6.00;;;;;33.50;20.07;101935.34;6280073;22;46530;-81
2022/07/16 14:44:04;;;;;;;;;4.00;3.00;;;;;33.45;20.19;101920.34;6253046;22;45583;-83
2022/07/16 15:30:28;;;;;;;;;3.00;3.00;;;;;33.98;19.96;101895.91;6249087;22;46248;-85
2022/07/16 15:33:36;;;;;;;;;3.00;3.00;;;;;34.01;19.58;101907.44;6268434;22;45290;-84
2022/07/16 15:35:39;;;;;;;;;5.25;5.00;;;;;33.96;19.82;101896.00;6274514;22;45406;-84
2022/07/16 15:38:05;;;;;;;;;4.25;4.25;;;;;33.98;19.90;101899.50;6270342;22;44785;-83
2022/07/16 15:40:40;;;;;;;;;3.00;3.00;;;;;33.99;19.51;101893.00;6219503;22;46840;-84
2022/07/16 15:43:09;;;;;;;;;3.25;3.25;;;;;33.88;19.95;101895.81;6269901;22;45623;-84
2022/07/16 15:45:37;;;;;;;;;3.25;3.25;;;;;33.83;20.29;101901.66;6243942;22;45296;-82
2022/07/16 15:48:06;;;;;;;;;3.00;3.00;;;;;33.77;20.11;101904.03;6218408;22;44844;-82
2022/07/16 15:50:42;;;;;;;;;6.50;4.00;;;;;33.77;20.55;101898.56;6269500;22;46130;-82
2022/07/16 15:53:12;;;;;;;;;3.00;3.00;;;;;33.86;20.18;101896.91;6269834;22;45120;-85
2022/07/16 15:55:37;;;;;;;;;5.00;5.00;;;;;33.88;20.27;101890.34;6244262;22;45572;-83
2022/07/16 15:58:06;;;;;;;;;3.00;3.00;;;;;33.90;20.41;101885.63;6243866;22;45396;-83
2022/07/16 16:00:31;;;;;;;;;4.75;3.75;;;;;33.90;20.20;101885.63;6269590;22;45884;-83
2022/07/16 16:03:10;;;;;;;;;4.75;4.75;;;;;33.84;20.10;101880.66;6269695;22;45311;-84
2022/07/16 16:05:35;;;;;;;;;4.75;4.00;;;;;33.90;20.25;101880.16;6221283;22;44680;-85
2022/07/16 16:08:02;;;;;;;;;4.00;4.00;;;;;33.89;20.36;101886.59;6244784;22;45326;-84
2022/07/16 16:10:28;;;;;;;;;7.50;5.50;;;;;33.88;20.37;101884.88;6244641;22;46922;-84
2022/07/16 16:12:53;;;;;;;;;5.25;4.50;;;;;33.86;20.86;101881.38;6270453;22;44810;-84
2022/07/16 16:15:22;;;;;;;;;6.25;6.25;;;;;33.87;20.17;101882.25;6270316;22;44759;-84
2022/07/16 16:17:47;;;;;;;;;5.00;4.00;;;;;33.88;20.41;101873.94;6297065;22;44686;-86
2022/07/16 16:20:13;;;;;;;;;4.00;4.00;;;;;33.87;20.67;101890.44;6270772;22;47066;-85
2022/07/16 16:22:40;;;;;;;;;4.00;4.00;;;;;33.83;20.49;101882.50;6244338;22;44720;-84
2022/07/16 16:25:09;;;;;;;;;4.25;4.25;;;;;33.86;20.43;101880.53;6269769;22;45122;-84
2022/07/16 16:27:36;;;;;;;;;5.00;5.00;;;;;33.85;20.35;101884.28;6296397;22;45171;-85
2022/07/16 16:30:02;;;;;;;;;3.75;3.75;;;;;33.88;20.31;101876.66;6243934;22;47127;-84
2022/07/16 16:32:30;;;;;;;;;5.00;5.00;;;;;33.92;20.49;101878.16;6268761;22;44928;-84
2022/07/16 16:35:04;;;;;;;;;4.50;4.50;;;;;33.94;20.05;101878.88;6296408;22;44869;-83
2022/07/16 16:37:30;;;;;;;;;3.00;3.00;;;;;33.97;20.31;101881.34;6295785;22;45501;-84
2022/07/16 16:39:56;;;;;;;;;4.00;4.00;;;;;34.01;20.93;101879.22;6297056;22;45262;-85
2022/07/16 16:42:24;;;;;;;;;2.00;2.00;;;;;34.17;20.36;101885.16;6244598;22;44888;-84
2022/07/16 16:45:12;;;;;;;;;2.75;2.75;;;;;34.26;20.31;101889.81;6294627;22;45464;-84
2022/07/16 16:47:37;;;;;;;;;5.75;5.75;;;;;34.27;19.97;101890.72;6268214;22;45678;-84
2022/07/16 16:50:08;;;;;;;;;4.00;4.00;;;;;34.23;20.19;101894.69;6244305;22;46416;-86
2022/07/16 16:52:36;;;;;;;;;5.00;5.00;;;;;34.22;20.09;101891.09;6217976;22;45185;-82
2022/07/16 16:55:01;;;;;;;;;4.75;4.75;;;;;34.18;19.86;101891.47;6270175;22;45060;-86
2022/07/16 16:57:29;;;;;;;;;5.25;5.25;;;;;34.20;20.14;101890.34;6271128;22;44850;-85
2022/07/16 16:59:57;;;;;;;;;6.75;5.75;;;;;34.33;20.33;101889.31;6271121;22;45392;-85
2022/07/16 17:02:27;;;;;;;;;5.25;4.75;;;;;34.57;20.26;101889.06;6297338;22;44895;-85
2022/07/16 17:04:55;;;;;;;;;3.00;2.75;;;;;34.75;20.26;101889.28;6295853;22;44778;-81
2022/07/16 17:07:22;;;;;;;;;6.00;4.75;;;;;35.18;19.85;101888.22;6294127;22;44763;-84
2022/07/16 17:09:48;;;;;;;;;4.75;4.75;;;;;36.94;19.50;101890.88;6242304;22;47289;-85
2022/07/16 17:12:13;;;;;;;;;3.00;3.00;;;;;38.92;18.02;101892.75;6268923;22;44935;-85
2022/07/16 17:14:41;;;;;;;;;4.25;4.25;;;;;40.56;16.59;101879.31;6244139;22;45218;-84
2022/07/16 17:17:16;;;;;;;;;;;;;;;;;;;;;
2022/07/16 17:19:45;;;;;;;;;5.50;4.75;;;;;43.21;14.51;101888.19;6270155;22;74698;-82
2022/07/16 17:22:11;;;;;;;;;4.00;4.00;;;;;43.89;14.65;101894.31;6214544;22;44715;-83
2022/07/16 17:24:44;;;;;;;;;4.00;3.75;;;;;44.35;14.03;101895.81;6296093;22;45318;-83
2022/07/16 17:27:10;;;;;;;;;5.25;5.00;;;;;44.33;13.17;101884.91;6295717;22;44737;-83
2022/07/16 17:29:37;;;;;;;;;3.25;3.25;;;;;43.95;13.85;101876.88;6264680;22;46756;-84
2022/07/16 17:32:02;;;;;;;;;4.00;3.00;;;;;42.95;13.68;101877.59;6236531;22;44733;-87
2022/07/16 17:34:35;;;;;;;;;5.00;4.50;;;;;42.07;13.77;101879.13;6265723;22;45737;-85
2022/07/16 17:37:02;;;;;;;;;3.00;2.25;;;;;42.02;14.76;101876.06;6240637;22;44962;-86
2022/07/16 17:39:32;;;;;;;;;2.75;2.75;;;;;41.61;14.20;101885.50;6265068;22;46038;-89
2022/07/16 17:42:18;;;;;;;;;4.00;4.00;;;;;40.84;14.59;101881.69;6216949;22;44885;-90
2022/07/16 17:44:46;;;;;;;;;4.00;4.00;;;;;39.93;14.84;101886.38;6244307;22;45300;-86
2022/07/16 17:47:19;;;;;;;;;5.25;4.00;;;;;39.14;15.36;101887.69;6264941;22;44893;-87
2022/07/16 17:49:51;;;;;;;;;3.75;2.00;;;;;38.64;16.16;101883.78;6265645;22;47083;-88
2022/07/16 17:52:27;;;;;;;;;3.75;3.75;;;;;38.53;16.17;101889.56;6240330;22;44902;-86
2022/07/16 17:54:59;;;;;;;;;3.25;3.00;;;;;38.59;15.82;101884.25;6242224;22;44769;-87
2022/07/16 17:57:33;;;;;;;;;5.50;4.50;;;;;38.60;16.48;101887.88;6263295;22;44869;-86
2022/07/16 17:59:58;;;;;;;;;5.75;4.00;;;;;38.58;15.89;101888.03;6239102;22;45254;-85
2022/07/16 18:02:26;;;;;;;;;2.50;2.50;;;;;38.23;16.46;101901.81;6240513;22;45940;-89
2022/07/16 18:04:57;;;;;;;;;4.00;4.00;;;;;37.72;16.34;101893.28;6241064;22;45072;-87
2022/07/16 18:07:42;;;;;;;;;3.75;3.75;;;;;37.08;16.94;101892.31;6242437;22;44752;-86
2022/07/16 18:10:11;;;;;;;;;4.00;4.00;;;;;36.57;17.61;101893.59;6239919;22;45190;-89
2022/07/16 18:12:40;;;;;;;;;3.50;3.50;;;;;36.16;17.69;101896.50;6239963;22;44986;-87
2022/07/16 18:15:16;;;;;;;;;4.75;4.25;;;;;35.81;18.03;101896.19;6262926;22;44750;-85
2022/07/16 18:17:42;;;;;;;;;5.75;4.75;;;;;35.42;18.18;101898.81;6246371;22;45146;-90
2022/07/16 18:20:08;;;;;;;;;6.00;5.00;;;;;35.02;18.73;101900.53;6246338;22;46948;-88
2022/07/16 18:22:46;;;;;;;;;4.00;4.00;;;;;34.69;18.73;101899.78;6271789;22;45352;-89
2022/07/16 18:25:14;;;;;;;;;6.00;5.00;;;;;34.45;18.68;101916.44;6246106;22;45280;-90
2022/07/16 18:27:41;;;;;;;;;3.75;3.75;;;;;34.22;19.09;101907.50;6245970;22;45478;-88
2022/07/16 18:30:11;;;;;;;;;5.25;4.25;;;;;33.94;19.54;101908.94;6245204;22;47205;-90
2022/07/16 18:32:37;;;;;;;;;4.50;4.50;;;;;33.68;20.04;101911.16;6245880;22;45188;-86
2022/07/16 18:35:05;;;;;;;;;6.25;6.25;;;;;33.43;20.26;101906.81;6247883;22;45294;-87
2022/07/16 18:37:30;;;;;;;;;10.00;9.00;;;;;33.22;20.71;101909.41;6246249;22;45183;-91
2022/07/16 18:39:56;;;;;;;;;15.75;15.75;;;;;33.03;20.54;101911.91;6246022;22;46846;-85
2022/07/16 18:42:21;;;;;;;;;11.25;10.75;;;;;32.80;20.85;101910.97;6245369;22;45222;-85
2022/07/16 18:44:50;;;;;;;;;5.50;5.50;;;;;32.58;20.77;101914.53;6245174;22;45301;-87
2022/07/16 18:47:21;;;;;;;;;7.25;7.25;;;;;32.39;21.46;101913.22;6242668;22;45698;-90
2022/07/16 18:49:48;;;;;;;;;6.00;6.00;;;;;32.19;21.50;101917.50;6244493;22;47266;-87
2022/07/16 18:52:16;;;;;;;;;9.75;9.75;;;;;32.04;21.62;101924.13;6246834;22;45350;-93
2022/07/16 18:54:44;;;;;;;;;6.25;6.00;;;;;31.88;21.63;101926.22;6245465;22;45400;-90
2022/07/16 18:57:10;;;;;;;;;10.25;10.25;;;;;31.72;21.99;101924.66;6245114;22;45760;-92
2022/07/16 18:59:35;;;;;;;;;8.25;8.00;;;;;31.60;21.95;101928.31;6245491;22;46833;-88
2022/07/16 19:02:12;;;;;;;;;7.00;7.00;;;;;31.42;22.70;101919.63;6246257;22;45464;-89
2022/07/16 19:04:38;;;;;;;;;8.50;6.25;;;;;31.20;22.57;101923.88;6246762;22;45504;-89
2022/07/16 19:07:08;;;;;;;;;7.00;4.75;;;;;31.01;23.02;101926.19;6246394;22;45787;-90
2022/07/16 19:09:43;;;;;;;;;6.00;6.00;;;;;30.75;23.33;101919.84;6246245;22;47044;-80
2022/07/16 19:12:09;;;;;;;;;6.00;6.00;;;;;30.51;23.34;101928.72;6248744;22;45357;-87
2022/07/16 19:14:34;;;;;;;;;5.50;5.50;;;;;30.25;23.87;101935.94;6255563;22;45763;-87
2022/07/16 19:17:00;;;;;;;;;7.75;5.50;;;;;29.98;24.21;101933.22;6253118;22;45402;-88
2022/07/16 19:19:26;;;;;;;;;5.00;5.00;;;;;29.73;23.79;101938.53;6245582;22;48059;-85
2022/07/16 19:21:53;;;;;;;;;14.75;14.25;;;;;29.51;24.21;101949.88;6250234;22;45634;-87
2022/07/16 19:24:29;;;;;;;;;8.50;8.50;;;;;29.29;24.63;101948.53;6246972;22;45388;-88
2022/07/16 19:26:55;;;;;;;;;12.25;12.25;;;;;29.05;24.85;101948.25;6244444;22;45445;-86
2022/07/16 19:29:24;;;;;;;;;10.50;10.50;;;;;28.91;25.01;101953.63;6246712;22;46330;-86
2022/07/16 19:31:49;;;;;;;;;9.25;8.00;;;;;28.74;25.08;101958.25;6249850;22;45375;-87
2022/07/16 19:34:17;;;;;;;;;5.00;5.00;;;;;28.56;25.28;101954.81;6226233;22;45290;-88
2022/07/16 19:36:43;;;;;;;;;8.00;8.00;;;;;28.45;25.41;101972.69;6195688;22;45764;-86
2022/07/16 19:39:16;;;;;;;;;8.00;7.75;;;;;28.32;25.63;101973.38;6246600;22;46312;-86
2022/07/16 19:41:44;;;;;;;;;6.25;6.25;;;;;28.21;25.93;101970.44;6223697;22;45315;-85
2022/07/16 19:44:09;;;;;;;;;7.50;6.75;;;;;28.12;26.09;101970.94;6255173;22;45496;-87
2022/07/16 19:46:52;;;;;;;;;7.25;6.25;;;;;28.03;26.17;101987.75;6242475;22;45056;-86
2022/07/16 19:49:26;;;;;;;;;6.00;5.00;;;;;27.90;26.21;101984.84;6265406;22;45371;-86
2022/07/16 19:51:54;;;;;;;;;3.67;3.67;;;;;27.75;26.29;101983.88;6220220;22;45391;-87
2022/07/16 19:54:25;;;;;;;;;4.33;3.67;;;;;27.67;26.88;101987.00;6257428;22;45442;-87
2022/07/16 19:59:42;;;;;;;;;6.00;4.25;;;;;27.45;27.00;101998.16;6260318;22;44905;-87
2022/07/16 20:02:12;;;;;;;;;5.50;5.50;;;;;27.35;27.11;101998.72;6253765;22;45584;-87
2022/07/16 20:04:38;;;;;;;;;5.50;5.50;;;;;27.28;27.43;102004.44;6245594;22;45429;-85
2022/07/16 20:07:05;;;;;;;;;5.00;4.33;;;;;27.24;27.42;102008.28;6243707;22;45608;-85
2022/07/16 20:09:34;;;;;;;;;3.00;2.00;;;;;27.19;27.36;102013.06;6244657;22;46430;-86
2022/07/16 20:12:02;;;;;;;;;6.00;6.00;;;;;27.12;27.46;102018.84;6243186;22;45335;-84
2022/07/16 20:14:27;;;;;;;;;8.50;8.00;;;;;27.05;27.55;102027.28;6245336;22;45422;-84
2022/07/16 20:16:53;;;;;;;;;6.25;6.25;;;;;26.98;27.58;102022.28;6245429;22;45671;-85
2022/07/16 20:19:19;;;;;;;;;5.00;4.75;;;;;26.93;27.75;102029.75;6245804;22;46119;-83
2022/07/16 20:21:49;;;;;;;;;8.00;7.00;;;;;26.85;27.75;102027.44;6243027;22;45596;-85
2022/07/16 20:24:15;;;;;;;;;8.00;8.00;;;;;26.83;27.71;102041.03;6217813;22;45378;-83
2022/07/16 20:26:45;;;;;;;;;9.25;8.25;;;;;26.74;28.20;102036.09;6244534;22;45305;-84
2022/07/16 20:29:11;;;;;;;;;10.50;10.00;;;;;26.68;28.32;102031.03;6244918;22;46795;-83
2022/07/16 20:31:36;;;;;;;;;9.25;8.50;;;;;26.65;28.37;102033.00;6237759;22;46108;-84
2022/07/16 20:34:01;;;;;;;;;12.00;11.00;;;;;26.60;28.53;102036.81;6243511;22;45518;-85
2022/07/16 20:36:29;;;;;;;;;7.50;7.50;;;;;26.58;28.69;102037.84;6245422;22;45506;-84
2022/07/16 20:39:02;;;;;;;;;9.00;8.75;;;;;26.55;29.02;102041.56;6245100;22;45371;-85
2022/07/16 20:41:30;;;;;;;;;6.00;6.00;;;;;26.52;29.22;102041.72;6245376;22;45362;-84
2022/07/16 20:43:58;;;;;;;;;6.00;4.00;;;;;26.45;28.54;102048.34;6246156;22;45455;-85
2022/07/16 20:46:23;;;;;;;;;6.25;4.00;;;;;26.44;29.06;102051.13;6245687;22;45830;-85
2022/07/16 20:48:48;;;;;;;;;8.00;6.50;;;;;26.38;28.61;102053.19;6243554;22;46872;-85
2022/07/16 20:51:17;;;;;;;;;5.00;5.00;;;;;26.31;29.17;102046.34;6268552;22;45366;-84
2022/07/16 20:53:42;;;;;;;;;4.00;4.00;;;;;26.29;29.55;102050.06;6269102;22;45729;-82
2022/07/16 20:56:10;;;;;;;;;7.50;6.50;;;;;26.27;29.19;102052.81;6244012;22;45380;-83
2022/07/16 20:58:38;;;;;;;;;9.25;8.00;;;;;26.22;29.60;102054.00;6244836;22;45369;-84
2022/07/16 21:01:08;;;;;;;;;6.00;6.00;;;;;26.15;29.25;102054.31;6244117;22;45492;-87
2022/07/16 21:03:37;;;;;;;;;7.00;7.00;;;;;26.08;29.56;102055.53;6244252;22;45420;-86
2022/07/16 21:06:02;;;;;;;;;6.25;5.50;;;;;26.02;29.48;102052.28;6246059;22;45288;-85
2022/07/16 21:08:28;;;;;;;;;6.50;6.50;;;;;26.03;29.61;102054.00;6244776;22;45719;-83
2022/07/16 21:10:56;;;;;;;;;6.50;6.50;;;;;25.95;29.81;102057.97;6268260;22;45487;-84
2022/07/16 21:13:27;;;;;;;;;4.50;4.50;;;;;25.90;30.28;102053.72;6244815;22;45759;-83
2022/07/16 21:15:55;;;;;;;;;6.00;6.00;;;;;25.90;30.14;102068.09;6243631;22;45559;-88
2022/07/16 21:18:20;;;;;;;;;5.00;4.50;;;;;25.80;30.06;102058.66;6244085;22;47915;-85
2022/07/16 21:20:48;;;;;;;;;5.75;5.75;;;;;25.79;30.17;102061.41;6242880;22;45434;-85
2022/07/16 21:23:22;;;;;;;;;6.50;4.00;;;;;25.76;30.31;102062.44;6242312;22;45737;-83
2022/07/16 21:25:47;;;;;;;;;5.00;5.00;;;;;25.72;30.79;102069.78;6269130;22;45595;-87
2022/07/16 21:28:19;;;;;;;;;4.00;4.00;;;;;25.66;30.40;102063.78;6243654;22;46861;-88
2022/07/16 21:30:44;;;;;;;;;5.00;4.25;;;;;25.65;30.70;102076.41;6255849;22;45842;-87
2022/07/16 21:33:16;;;;;;;;;4.75;4.75;;;;;25.63;31.09;102077.44;6263873;22;45319;-89
2022/07/16 21:35:43;;;;;;;;;6.00;6.00;;;;;25.58;31.41;102071.38;6243140;22;45008;-89
2022/07/16 21:38:11;;;;;;;;;6.50;6.25;;;;;25.52;30.81;102069.81;6219272;22;46215;-86
2022/07/16 21:40:42;;;;;;;;;5.75;5.75;;;;;25.47;31.38;102063.75;6242485;22;45777;-86
2022/07/16 21:43:09;;;;;;;;;3.75;3.25;;;;;25.42;31.35;102066.69;6269107;22;45416;-86
2022/07/16 21:45:37;;;;;;;;;6.00;6.00;;;;;25.42;31.13;102081.97;6269008;22;45670;-85
2022/07/16 21:48:05;;;;;;;;;5.00;5.00;;;;;25.36;31.51;102076.84;6245029;22;45372;-87
2022/07/16 21:50:36;;;;;;;;;8.75;6.25;;;;;25.32;31.09;102086.91;6243105;22;45337;-86
2022/07/16 21:53:11;;;;;;;;;4.75;4.75;;;;;25.31;31.47;102101.31;6243143;22;45449;-85
2022/07/16 21:55:37;;;;;;;;;5.00;5.00;;;;;25.27;31.71;102099.72;6242291;22;45488;-85
2022/07/16 21:58:02;;;;;;;;;8.00;7.00;;;;;25.21;31.54;102092.78;6244583;22;45502;-85
2022/07/16 22:00:30;;;;;;;;;7.00;7.00;;;;;25.17;31.66;102090.28;6245402;22;45393;-87
2022/07/16 22:02:56;;;;;;;;;5.75;5.00;;;;;25.14;32.04;102093.06;6242619;22;45440;-84
2022/07/16 22:05:21;;;;;;;;;6.00;6.00;;;;;25.13;32.18;102099.38;6245101;22;45291;-83
2022/07/16 22:07:47;;;;;;;;;8.50;7.25;;;;;25.07;31.69;102104.13;6242404;22;46809;-82
2022/07/16 22:10:20;;;;;;;;;6.00;5.00;;;;;25.00;32.00;102096.38;6243010;22;45351;-84
2022/07/16 22:12:47;;;;;;;;;9.75;6.50;;;;;24.95;32.03;102101.06;6268020;22;45472;-84
2022/07/16 22:15:18;;;;;;;;;5.00;4.00;;;;;24.92;31.81;102102.06;6267499;22;45678;-85
2022/07/16 22:17:46;;;;;;;;;7.50;6.00;;;;;24.87;32.29;102104.94;6242105;22;45936;-84
2022/07/16 22:22:59;;;;;;;;;5.00;5.00;;;;;24.84;32.66;102115.88;6244432;22;45574;-85
2022/07/16 22:25:24;;;;;;;;;3.50;2.50;;;;;24.79;32.34;102112.47;6243345;22;45800;-85
2022/07/16 22:27:53;;;;;;;;;5.25;5.25;;;;;24.74;32.12;102110.91;6244689;22;46138;-86